sensor_id;sensor_type;location;lat;lon;timestamp;temperature;humidity
22436;DHT22;11385;50.822;4.324;2022-07-17T00:01:42;19.50;99.90
22436;DHT22;11385;50.822;4.324;2022-07-17T00:04:09;19.50;99.90
22436;DHT22;11385;50.822;4.324;2022-07-17T00:06:35;19.70;99.90
22436;DHT22;11385;50.822;4.324;2022-07-17T00:09:02;19.70;99.90
22436;DHT22;11385;50.822;4.324;2022-07-17T00:11:29;19.50;99.90
22436;DHT22;11385;50.822;4.324;2022-07-17T00:13:56;19.70;99.90
22436;DHT22;11385;50.822;4.324;2022-07-17T00:16:22;19.30;99.90
22436;DHT22;11385;50.822;4.324;2022-07-17T00:18:49;19.30;99.90
22436;DHT22;11385;50.822;4.324;2022-07-17T00:21:16;19.30;99.90
22436;DHT22;11385;50.822;4.324;2022-07-17T00:23:44;19.20;99.90
22436;DHT22;11385;50.822;4.324;2022-07-17T00:26:11;19.40;99.90
22436;DHT22;11385;50.822;4.324;2022-07-17T00:28:37;19.20;99.90
22436;DHT22;11385;50.822;4.324;2022-07-17T00:31:04;19.40;99.90
22436;DHT22;11385;50.822;4.324;2022-07-17T00:33:31;19.20;99.90
22436;DHT22;11385;50.822;4.324;2022-07-17T00:35:58;19.00;99.90
22436;DHT22;11385;50.822;4.324;2022-07-17T00:38:25;19.10;99.90
22436;DHT22;11385;50.822;4.324;2022-07-17T00:40:54;19.00;99.90
22436;DHT22;11385;50.822;4.324;2022-07-17T00:43:23;19.00;99.90
22436;DHT22;11385;50.822;4.324;2022-07-17T00:45:58;19.10;99.90
22436;DHT22;11385;50.822;4.324;2022-07-17T00:48:25;19.10;99.90
22436;DHT22;11385;50.822;4.324;2022-07-17T00:50:53;19.00;99.90
22436;DHT22;11385;50.822;4.324;2022-07-17T00:53:20;19.10;99.90
22436;DHT22;11385;50.822;4.324;2022-07-17T00:55:48;19.00;99.90
22436;DHT22;11385;50.822;4.324;2022-07-17T00:58:19;19.00;99.90
22436;DHT22;11385;50.822;4.324;2022-07-17T01:00:47;19.00;99.90
22436;DHT22;11385;50.822;4.324;2022-07-17T01:03:15;19.00;99.90
22436;DHT22;11385;50.822;4.324;2022-07-17T01:05:43;19.00;99.90
22436;DHT22;11385;50.822;4.324;2022-07-17T01:08:10;18.90;99.90
22436;DHT22;11385;50.822;4.324;2022-07-17T01:10:36;18.90;99.90
22436;DHT22;11385;50.822;4.324;2022-07-17T01:13:05;19.00;99.90
22436;DHT22;11385;50.822;4.324;2022-07-17T01:15:33;18.90;99.90
22436;DHT22;11385;50.822;4.324;2022-07-17T01:18:06;18.80;99.90
22436;DHT22;11385;50.822;4.324;2022-07-17T01:20:35;18.90;99.90
22436;DHT22;11385;50.822;4.324;2022-07-17T01:23:02;18.80;99.90
22436;DHT22;11385;50.822;4.324;2022-07-17T01:25:28;18.80;99.90
22436;DHT22;11385;50.822;4.324;2022-07-17T01:27:55;18.70;99.90
22436;DHT22;11385;50.822;4.324;2022-07-17T01:30:22;18.80;99.90
22436;DHT22;11385;50.822;4.324;2022-07-17T01:32:49;18.80;99.90
22436;DHT22;11385;50.822;4.324;2022-07-17T01:35:16;18.70;99.90
22436;DHT22;11385;50.822;4.324;2022-07-17T01:37:44;18.80;99.90
22436;DHT22;11385;50.822;4.324;2022-07-17T01:40:13;18.80;99.90
22436;DHT22;11385;50.822;4.324;2022-07-17T01:42:43;18.80;99.90
22436;DHT22;11385;50.822;4.324;2022-07-17T01:45:10;18.70;99.90
22436;DHT22;11385;50.822;4.324;2022-07-17T01:47:37;18.60;99.90
22436;DHT22;11385;50.822;4.324;2022-07-17T01:50:04;18.50;99.90
22436;DHT22;11385;50.822;4.324;2022-07-17T01:52:34;18.70;99.90
22436;DHT22;11385;50.822;4.324;2022-07-17T01:55:00;18.70;99.90
22436;DHT22;11385;50.822;4.324;2022-07-17T01:57:26;18.60;99.90
22436;DHT22;11385;50.822;4.324;2022-07-17T01:59:53;18.70;99.90
22436;DHT22;11385;50.822;4.324;2022-07-17T02:02:20;18.70;99.90
22436;DHT22;11385;50.822;4.324;2022-07-17T02:04:46;18.70;99.90
22436;DHT22;11385;50.822;4.324;2022-07-17T02:07:13;18.70;99.90
22436;DHT22;11385;50.822;4.324;2022-07-17T02:09:40;18.50;99.90
22436;DHT22;11385;50.822;4.324;2022-07-17T02:12:07;18.60;99.90
22436;DHT22;11385;50.822;4.324;2022-07-17T02:14:34;18.60;99.90
22436;DHT22;11385;50.822;4.324;2022-07-17T02:17:02;18.50;99.90
22436;DHT22;11385;50.822;4.324;2022-07-17T02:19:29;18.40;99.90
22436;DHT22;11385;50.822;4.324;2022-07-17T02:21:55;18.50;99.90
22436;DHT22;11385;50.822;4.324;2022-07-17T02:24:22;18.60;99.90
22436;DHT22;11385;50.822;4.324;2022-07-17T02:26:48;18.50;99.90
22436;DHT22;11385;50.822;4.324;2022-07-17T02:29:15;18.30;99.90
22436;DHT22;11385;50.822;4.324;2022-07-17T02:31:42;18.20;99.90
22436;DHT22;11385;50.822;4.324;2022-07-17T02:34:10;18.30;99.90
22436;DHT22;11385;50.822;4.324;2022-07-17T02:36:37;18.30;99.90
22436;DHT22;11385;50.822;4.324;2022-07-17T02:39:04;18.40;99.90
22436;DHT22;11385;50.822;4.324;2022-07-17T02:41:30;18.30;99.90
22436;DHT22;11385;50.822;4.324;2022-07-17T02:43:57;18.10;99.90
22436;DHT22;11385;50.822;4.324;2022-07-17T02:46:24;18.10;99.90
22436;DHT22;11385;50.822;4.324;2022-07-17T02:48:50;18.10;99.90
22436;DHT22;11385;50.822;4.324;2022-07-17T02:51:17;18.20;99.90
22436;DHT22;11385;50.822;4.324;2022-07-17T02:53:43;18.10;99.90
22436;DHT22;11385;50.822;4.324;2022-07-17T02:56:10;18.10;99.90
22436;DHT22;11385;50.822;4.324;2022-07-17T02:58:38;18.10;99.90
22436;DHT22;11385;50.822;4.324;2022-07-17T03:01:04;18.20;99.90
22436;DHT22;11385;50.822;4.324;2022-07-17T03:03:31;18.10;99.90
22436;DHT22;11385;50.822;4.324;2022-07-17T03:05:58;18.10;99.90
22436;DHT22;11385;50.822;4.324;2022-07-17T03:08:24;18.10;99.90
22436;DHT22;11385;50.822;4.324;2022-07-17T03:10:51;18.20;99.90
22436;DHT22;11385;50.822;4.324;2022-07-17T03:13:18;18.20;99.90
22436;DHT22;11385;50.822;4.324;2022-07-17T03:15:45;18.20;99.90
22436;DHT22;11385;50.822;4.324;2022-07-17T03:18:12;18.10;99.90
22436;DHT22;11385;50.822;4.324;2022-07-17T03:20:38;18.00;99.90
22436;DHT22;11385;50.822;4.324;2022-07-17T03:23:05;18.20;99.90
22436;DHT22;11385;50.822;4.324;2022-07-17T03:25:32;18.00;99.90
22436;DHT22;11385;50.822;4.324;2022-07-17T03:27:58;17.80;99.90
22436;DHT22;11385;50.822;4.324;2022-07-17T03:30:25;17.90;99.90
22436;DHT22;11385;50.822;4.324;2022-07-17T03:32:51;17.90;99.90
22436;DHT22;11385;50.822;4.324;2022-07-17T03:35:18;17.70;99.90
22436;DHT22;11385;50.822;4.324;2022-07-17T03:37:45;17.70;99.90
22436;DHT22;11385;50.822;4.324;2022-07-17T03:40:12;17.80;99.90
22436;DHT22;11385;50.822;4.324;2022-07-17T03:42:38;17.90;99.90
22436;DHT22;11385;50.822;4.324;2022-07-17T03:45:06;17.80;99.90
22436;DHT22;11385;50.822;4.324;2022-07-17T03:47:33;17.70;99.90
22436;DHT22;11385;50.822;4.324;2022-07-17T03:50:00;17.70;99.90
22436;DHT22;11385;50.822;4.324;2022-07-17T03:52:27;17.80;99.90
22436;DHT22;11385;50.822;4.324;2022-07-17T03:54:54;17.80;99.90
22436;DHT22;11385;50.822;4.324;2022-07-17T03:57:21;17.70;99.90
22436;DHT22;11385;50.822;4.324;2022-07-17T03:59:47;17.60;99.90
22436;DHT22;11385;50.822;4.324;2022-07-17T04:02:14;17.60;99.90
22436;DHT22;11385;50.822;4.324;2022-07-17T04:04:41;17.50;99.90
22436;DHT22;11385;50.822;4.324;2022-07-17T04:07:07;17.40;99.90
22436;DHT22;11385;50.822;4.324;2022-07-17T04:09:36;17.40;99.90
22436;DHT22;11385;50.822;4.324;2022-07-17T04:12:02;17.50;99.90
22436;DHT22;11385;50.822;4.324;2022-07-17T04:14:29;17.50;99.90
22436;DHT22;11385;50.822;4.324;2022-07-17T04:16:56;17.50;99.90
22436;DHT22;11385;50.822;4.324;2022-07-17T04:19:22;17.50;99.90
22436;DHT22;11385;50.822;4.324;2022-07-17T04:21:49;17.70;99.90
22436;DHT22;11385;50.822;4.324;2022-07-17T04:24:16;17.70;99.90
22436;DHT22;11385;50.822;4.324;2022-07-17T04:26:42;17.70;99.90
22436;DHT22;11385;50.822;4.324;2022-07-17T04:29:09;17.70;99.90
22436;DHT22;11385;50.822;4.324;2022-07-17T04:37:05;17.70;99.90
22436;DHT22;11385;50.822;4.324;2022-07-17T04:39:31;17.70;99.90
22436;DHT22;11385;50.822;4.324;2022-07-17T04:41:59;17.60;99.90
22436;DHT22;11385;50.822;4.324;2022-07-17T04:44:25;17.60;99.90
22436;DHT22;11385;50.822;4.324;2022-07-17T04:46:52;17.70;99.90
22436;DHT22;11385;50.822;4.324;2022-07-17T04:49:19;17.70;99.90
22436;DHT22;11385;50.822;4.324;2022-07-17T04:51:46;17.80;99.90
22436;DHT22;11385;50.822;4.324;2022-07-17T04:54:13;17.80;99.90
22436;DHT22;11385;50.822;4.324;2022-07-17T04:56:39;17.90;99.90
22436;DHT22;11385;50.822;4.324;2022-07-17T04:59:06;18.00;99.90
22436;DHT22;11385;50.822;4.324;2022-07-17T05:01:33;18.10;99.90
22436;DHT22;11385;50.822;4.324;2022-07-17T05:04:00;18.10;99.90
22436;DHT22;11385;50.822;4.324;2022-07-17T05:06:27;18.00;99.90
22436;DHT22;11385;50.822;4.324;2022-07-17T05:08:54;18.00;99.90
22436;DHT22;11385;50.822;4.324;2022-07-17T05:11:21;18.00;99.90
22436;DHT22;11385;50.822;4.324;2022-07-17T05:13:47;18.00;99.90
22436;DHT22;11385;50.822;4.324;2022-07-17T05:16:14;18.00;99.90
22436;DHT22;11385;50.822;4.324;2022-07-17T05:18:41;18.00;99.90
22436;DHT22;11385;50.822;4.324;2022-07-17T05:21:08;18.00;99.90
22436;DHT22;11385;50.822;4.324;2022-07-17T05:23:35;17.90;99.90
22436;DHT22;11385;50.822;4.324;2022-07-17T05:26:02;17.90;99.90
22436;DHT22;11385;50.822;4.324;2022-07-17T05:28:28;17.70;99.90
22436;DHT22;11385;50.822;4.324;2022-07-17T05:30:55;18.00;99.90
22436;DHT22;11385;50.822;4.324;2022-07-17T05:33:22;18.00;99.90
22436;DHT22;11385;50.822;4.324;2022-07-17T05:35:48;18.10;99.90
22436;DHT22;11385;50.822;4.324;2022-07-17T05:38:15;18.20;99.90
22436;DHT22;11385;50.822;4.324;2022-07-17T05:40:45;18.30;99.90
22436;DHT22;11385;50.822;4.324;2022-07-17T05:43:13;18.40;99.90
22436;DHT22;11385;50.822;4.324;2022-07-17T05:45:39;18.40;99.90
22436;DHT22;11385;50.822;4.324;2022-07-17T05:48:06;18.50;99.90
22436;DHT22;11385;50.822;4.324;2022-07-17T05:50:34;18.50;99.90
22436;DHT22;11385;50.822;4.324;2022-07-17T05:53:01;18.50;99.90
22436;DHT22;11385;50.822;4.324;2022-07-17T05:55:28;18.40;99.90
22436;DHT22;11385;50.822;4.324;2022-07-17T05:57:56;18.60;99.90
22436;DHT22;11385;50.822;4.324;2022-07-17T06:00:23;18.40;99.90
22436;DHT22;11385;50.822;4.324;2022-07-17T06:02:50;18.40;99.90
22436;DHT22;11385;50.822;4.324;2022-07-17T06:05:17;18.50;99.90
22436;DHT22;11385;50.822;4.324;2022-07-17T06:07:44;18.50;99.90
22436;DHT22;11385;50.822;4.324;2022-07-17T06:10:11;18.60;99.90
22436;DHT22;11385;50.822;4.324;2022-07-17T06:12:39;18.60;99.90
22436;DHT22;11385;50.822;4.324;2022-07-17T06:15:07;18.70;99.90
22436;DHT22;11385;50.822;4.324;2022-07-17T06:17:34;18.80;99.90
22436;DHT22;11385;50.822;4.324;2022-07-17T06:20:01;18.80;99.90
22436;DHT22;11385;50.822;4.324;2022-07-17T06:22:28;18.90;99.90
22436;DHT22;11385;50.822;4.324;2022-07-17T06:24:57;19.00;99.90
22436;DHT22;11385;50.822;4.324;2022-07-17T06:27:24;19.00;99.90
22436;DHT22;11385;50.822;4.324;2022-07-17T06:29:52;19.00;99.90
22436;DHT22;11385;50.822;4.324;2022-07-17T06:32:18;19.10;99.90
22436;DHT22;11385;50.822;4.324;2022-07-17T06:34:46;19.10;99.90
22436;DHT22;11385;50.822;4.324;2022-07-17T06:37:12;19.20;99.90
22436;DHT22;11385;50.822;4.324;2022-07-17T06:39:39;19.30;99.90
22436;DHT22;11385;50.822;4.324;2022-07-17T06:42:06;19.40;99.90
22436;DHT22;11385;50.822;4.324;2022-07-17T06:44:32;19.40;99.90
22436;DHT22;11385;50.822;4.324;2022-07-17T06:47:00;19.40;99.90
22436;DHT22;11385;50.822;4.324;2022-07-17T06:49:27;19.40;99.90
22436;DHT22;11385;50.822;4.324;2022-07-17T06:51:53;19.40;99.90
22436;DHT22;11385;50.822;4.324;2022-07-17T06:54:20;19.40;99.90
22436;DHT22;11385;50.822;4.324;2022-07-17T06:56:49;19.40;99.90
22436;DHT22;11385;50.822;4.324;2022-07-17T06:59:16;19.50;99.90
22436;DHT22;11385;50.822;4.324;2022-07-17T07:01:43;19.60;99.90
22436;DHT22;11385;50.822;4.324;2022-07-17T07:04:10;19.70;99.90
22436;DHT22;11385;50.822;4.324;2022-07-17T07:06:36;19.70;99.90
22436;DHT22;11385;50.822;4.324;2022-07-17T07:09:03;19.90;99.90
22436;DHT22;11385;50.822;4.324;2022-07-17T07:11:30;20.00;99.90
22436;DHT22;11385;50.822;4.324;2022-07-17T07:13:57;20.10;99.90
22436;DHT22;11385;50.822;4.324;2022-07-17T07:16:24;20.20;99.90
22436;DHT22;11385;50.822;4.324;2022-07-17T07:18:51;20.20;99.90
22436;DHT22;11385;50.822;4.324;2022-07-17T07:21:17;20.20;99.90
22436;DHT22;11385;50.822;4.324;2022-07-17T07:23:44;20.40;99.90
22436;DHT22;11385;50.822;4.324;2022-07-17T07:26:11;20.40;99.90
22436;DHT22;11385;50.822;4.324;2022-07-17T07:28:37;20.30;99.90
22436;DHT22;11385;50.822;4.324;2022-07-17T07:31:04;20.30;99.90
22436;DHT22;11385;50.822;4.324;2022-07-17T07:33:31;20.50;99.90
22436;DHT22;11385;50.822;4.324;2022-07-17T07:35:57;20.50;99.90
22436;DHT22;11385;50.822;4.324;2022-07-17T07:38:25;20.70;99.90
22436;DHT22;11385;50.822;4.324;2022-07-17T07:40:51;20.90;99.90
22436;DHT22;11385;50.822;4.324;2022-07-17T07:43:19;21.00;99.90
22436;DHT22;11385;50.822;4.324;2022-07-17T07:45:46;21.00;99.90
22436;DHT22;11385;50.822;4.324;2022-07-17T07:48:13;21.20;99.90
22436;DHT22;11385;50.822;4.324;2022-07-17T07:50:40;21.20;99.90
22436;DHT22;11385;50.822;4.324;2022-07-17T07:53:06;21.30;99.90
22436;DHT22;11385;50.822;4.324;2022-07-17T07:55:33;21.30;99.90
22436;DHT22;11385;50.822;4.324;2022-07-17T07:58:04;21.40;99.90
22436;DHT22;11385;50.822;4.324;2022-07-17T08:00:31;21.40;99.90
22436;DHT22;11385;50.822;4.324;2022-07-17T08:02:58;21.40;99.90
22436;DHT22;11385;50.822;4.324;2022-07-17T08:05:25;21.50;99.90
22436;DHT22;11385;50.822;4.324;2022-07-17T08:07:52;21.60;99.90
22436;DHT22;11385;50.822;4.324;2022-07-17T08:10:19;21.60;99.90
22436;DHT22;11385;50.822;4.324;2022-07-17T08:12:46;21.40;99.90
22436;DHT22;11385;50.822;4.324;2022-07-17T08:15:18;21.40;99.90
22436;DHT22;11385;50.822;4.324;2022-07-17T08:17:46;21.50;99.90
22436;DHT22;11385;50.822;4.324;2022-07-17T08:20:14;21.70;99.90
22436;DHT22;11385;50.822;4.324;2022-07-17T08:22:42;21.90;99.90
22436;DHT22;11385;50.822;4.324;2022-07-17T08:25:10;21.90;99.90
22436;DHT22;11385;50.822;4.324;2022-07-17T08:27:38;22.10;99.90
22436;DHT22;11385;50.822;4.324;2022-07-17T08:30:11;22.20;99.90
22436;DHT22;11385;50.822;4.324;2022-07-17T08:32:38;22.40;99.90
22436;DHT22;11385;50.822;4.324;2022-07-17T08:35:06;22.30;99.90
22436;DHT22;11385;50.822;4.324;2022-07-17T08:37:42;22.30;99.90
22436;DHT22;11385;50.822;4.324;2022-07-17T08:40:17;22.30;99.90
22436;DHT22;11385;50.822;4.324;2022-07-17T08:42:48;22.40;99.90
22436;DHT22;11385;50.822;4.324;2022-07-17T08:45:15;22.20;99.90
22436;DHT22;11385;50.822;4.324;2022-07-17T08:47:42;22.40;99.90
22436;DHT22;11385;50.822;4.324;2022-07-17T08:50:10;22.40;99.90
22436;DHT22;11385;50.822;4.324;2022-07-17T08:52:39;22.40;99.90
22436;DHT22;11385;50.822;4.324;2022-07-17T08:55:10;22.50;99.90
22436;DHT22;11385;50.822;4.324;2022-07-17T08:57:40;22.50;99.90
22436;DHT22;11385;50.822;4.324;2022-07-17T09:00:09;22.70;99.90
22436;DHT22;11385;50.822;4.324;2022-07-17T09:02:39;22.80;99.90
22436;DHT22;11385;50.822;4.324;2022-07-17T09:05:08;22.90;99.90
22436;DHT22;11385;50.822;4.324;2022-07-17T09:07:45;22.80;99.90
22436;DHT22;11385;50.822;4.324;2022-07-17T09:10:07;22.80;99.90
22436;DHT22;11385;50.822;4.324;2022-07-17T09:12:34;23.00;99.90
22436;DHT22;11385;50.822;4.324;2022-07-17T09:15:13;23.10;99.90
22436;DHT22;11385;50.822;4.324;2022-07-17T09:17:33;23.30;99.90
22436;DHT22;11385;50.822;4.324;2022-07-17T09:20:00;23.30;99.90
22436;DHT22;11385;50.822;4.324;2022-07-17T09:22:26;23.20;99.90
22436;DHT22;11385;50.822;4.324;2022-07-17T09:24:56;23.40;99.90
22436;DHT22;11385;50.822;4.324;2022-07-17T09:27:32;23.60;99.90
22436;DHT22;11385;50.822;4.324;2022-07-17T09:30:03;23.80;99.90
22436;DHT22;11385;50.822;4.324;2022-07-17T09:32:34;23.90;99.90
22436;DHT22;11385;50.822;4.324;2022-07-17T09:35:02;23.80;99.90
22436;DHT22;11385;50.822;4.324;2022-07-17T09:37:31;23.70;99.90
22436;DHT22;11385;50.822;4.324;2022-07-17T09:39:58;23.80;99.90
22436;DHT22;11385;50.822;4.324;2022-07-17T09:42:30;23.90;99.90
22436;DHT22;11385;50.822;4.324;2022-07-17T09:45:05;24.10;99.90
22436;DHT22;11385;50.822;4.324;2022-07-17T09:47:34;24.10;99.90
22436;DHT22;11385;50.822;4.324;2022-07-17T09:50:02;24.30;99.90
22436;DHT22;11385;50.822;4.324;2022-07-17T09:52:32;24.50;99.90
22436;DHT22;11385;50.822;4.324;2022-07-17T09:55:00;24.70;99.90
22436;DHT22;11385;50.822;4.324;2022-07-17T09:57:30;24.70;99.90
22436;DHT22;11385;50.822;4.324;2022-07-17T10:00:02;24.60;99.90
22436;DHT22;11385;50.822;4.324;2022-07-17T10:02:29;24.80;99.90
22436;DHT22;11385;50.822;4.324;2022-07-17T10:04:56;24.70;99.90
22436;DHT22;11385;50.822;4.324;2022-07-17T10:07:23;24.80;99.90
22436;DHT22;11385;50.822;4.324;2022-07-17T10:09:50;24.80;99.90
22436;DHT22;11385;50.822;4.324;2022-07-17T10:12:18;24.80;99.90
22436;DHT22;11385;50.822;4.324;2022-07-17T10:14:47;24.80;99.90
22436;DHT22;11385;50.822;4.324;2022-07-17T10:17:19;24.90;99.90
22436;DHT22;11385;50.822;4.324;2022-07-17T10:19:50;24.80;99.90
22436;DHT22;11385;50.822;4.324;2022-07-17T10:22:18;24.70;99.90
22436;DHT22;11385;50.822;4.324;2022-07-17T10:24:47;24.20;99.90
22436;DHT22;11385;50.822;4.324;2022-07-17T10:27:21;24.10;99.90
22436;DHT22;11385;50.822;4.324;2022-07-17T10:32:22;24.50;99.90
22436;DHT22;11385;50.822;4.324;2022-07-17T10:34:53;24.80;99.90
22436;DHT22;11385;50.822;4.324;2022-07-17T10:37:25;24.80;99.90
22436;DHT22;11385;50.822;4.324;2022-07-17T10:40:00;25.00;99.90
22436;DHT22;11385;50.822;4.324;2022-07-17T10:42:41;25.00;99.90
22436;DHT22;11385;50.822;4.324;2022-07-17T10:45:15;25.20;99.90
22436;DHT22;11385;50.822;4.324;2022-07-17T10:47:48;25.10;99.90
22436;DHT22;11385;50.822;4.324;2022-07-17T10:50:15;25.30;99.90
22436;DHT22;11385;50.822;4.324;2022-07-17T10:52:42;25.20;99.90
22436;DHT22;11385;50.822;4.324;2022-07-17T10:55:17;25.20;99.90
22436;DHT22;11385;50.822;4.324;2022-07-17T10:57:45;25.30;99.90
22436;DHT22;11385;50.822;4.324;2022-07-17T11:00:13;25.50;99.90
22436;DHT22;11385;50.822;4.324;2022-07-17T11:02:39;25.70;99.90
22436;DHT22;11385;50.822;4.324;2022-07-17T11:05:10;25.60;99.90
22436;DHT22;11385;50.822;4.324;2022-07-17T11:07:50;25.60;99.90
22436;DHT22;11385;50.822;4.324;2022-07-17T11:10:17;25.70;99.90
22436;DHT22;11385;50.822;4.324;2022-07-17T11:12:44;25.50;99.90
22436;DHT22;11385;50.822;4.324;2022-07-17T11:15:11;25.50;99.90
22436;DHT22;11385;50.822;4.324;2022-07-17T11:17:38;25.60;99.90
22436;DHT22;11385;50.822;4.324;2022-07-17T11:20:05;25.60;99.90
22436;DHT22;11385;50.822;4.324;2022-07-17T11:22:31;25.80;99.90
22436;DHT22;11385;50.822;4.324;2022-07-17T11:24:58;26.00;99.90
22436;DHT22;11385;50.822;4.324;2022-07-17T11:27:28;26.20;99.90
22436;DHT22;11385;50.822;4.324;2022-07-17T11:29:58;25.90;99.90
22436;DHT22;11385;50.822;4.324;2022-07-17T11:32:31;26.10;99.90
22436;DHT22;11385;50.822;4.324;2022-07-17T11:34:58;26.30;99.90
22436;DHT22;11385;50.822;4.324;2022-07-17T11:37:28;26.60;99.90
22436;DHT22;11385;50.822;4.324;2022-07-17T11:39:56;26.80;99.90
22436;DHT22;11385;50.822;4.324;2022-07-17T11:42:23;26.90;99.90
22436;DHT22;11385;50.822;4.324;2022-07-17T11:44:53;26.80;99.90
22436;DHT22;11385;50.822;4.324;2022-07-17T11:47:23;27.00;99.90
22436;DHT22;11385;50.822;4.324;2022-07-17T11:49:50;27.30;99.90
22436;DHT22;11385;50.822;4.324;2022-07-17T11:52:19;27.00;99.90
22436;DHT22;11385;50.822;4.324;2022-07-17T11:54:48;27.00;99.90
22436;DHT22;11385;50.822;4.324;2022-07-17T11:57:16;26.90;99.90
22436;DHT22;11385;50.822;4.324;2022-07-17T11:59:45;26.80;99.90
22436;DHT22;11385;50.822;4.324;2022-07-17T12:02:17;26.70;99.90
22436;DHT22;11385;50.822;4.324;2022-07-17T12:04:55;26.70;99.90
22436;DHT22;11385;50.822;4.324;2022-07-17T12:07:24;26.90;99.90
22436;DHT22;11385;50.822;4.324;2022-07-17T12:09:52;27.30;99.90
22436;DHT22;11385;50.822;4.324;2022-07-17T12:12:25;27.50;99.90
22436;DHT22;11385;50.822;4.324;2022-07-17T12:14:54;27.60;99.90
22436;DHT22;11385;50.822;4.324;2022-07-17T12:17:22;27.60;99.90
22436;DHT22;11385;50.822;4.324;2022-07-17T12:19:51;27.50;99.90
22436;DHT22;11385;50.822;4.324;2022-07-17T12:22:18;27.60;99.90
22436;DHT22;11385;50.822;4.324;2022-07-17T12:24:46;27.40;99.90
22436;DHT22;11385;50.822;4.324;2022-07-17T12:27:14;27.40;99.90
22436;DHT22;11385;50.822;4.324;2022-07-17T12:29:42;27.60;99.90
22436;DHT22;11385;50.822;4.324;2022-07-17T12:32:12;27.70;99.90
22436;DHT22;11385;50.822;4.324;2022-07-17T12:34:42;27.40;99.90
22436;DHT22;11385;50.822;4.324;2022-07-17T12:37:16;27.70;99.90
22436;DHT22;11385;50.822;4.324;2022-07-17T12:39:44;27.60;99.90
22436;DHT22;11385;50.822;4.324;2022-07-17T12:42:11;27.70;99.90
22436;DHT22;11385;50.822;4.324;2022-07-17T12:44:38;28.00;99.90
22436;DHT22;11385;50.822;4.324;2022-07-17T12:47:04;27.70;99.90
22436;DHT22;11385;50.822;4.324;2022-07-17T12:49:31;28.00;99.90
22436;DHT22;11385;50.822;4.324;2022-07-17T12:51:58;28.10;99.90
22436;DHT22;11385;50.822;4.324;2022-07-17T12:54:25;28.00;99.90
22436;DHT22;11385;50.822;4.324;2022-07-17T12:56:51;27.70;99.90
22436;DHT22;11385;50.822;4.324;2022-07-17T12:59:18;27.70;99.90
22436;DHT22;11385;50.822;4.324;2022-07-17T13:01:45;27.80;99.90
22436;DHT22;11385;50.822;4.324;2022-07-17T13:04:13;27.60;99.90
22436;DHT22;11385;50.822;4.324;2022-07-17T13:06:40;27.60;99.90
22436;DHT22;11385;50.822;4.324;2022-07-17T13:09:07;27.70;99.90
22436;DHT22;11385;50.822;4.324;2022-07-17T13:11:33;27.70;99.90
22436;DHT22;11385;50.822;4.324;2022-07-17T13:14:00;27.90;99.90
22436;DHT22;11385;50.822;4.324;2022-07-17T13:16:27;27.90;99.90
22436;DHT22;11385;50.822;4.324;2022-07-17T13:18:54;27.90;99.90
22436;DHT22;11385;50.822;4.324;2022-07-17T13:21:21;28.00;99.90
22436;DHT22;11385;50.822;4.324;2022-07-17T13:23:47;28.20;99.90
22436;DHT22;11385;50.822;4.324;2022-07-17T13:26:14;28.50;99.90
22436;DHT22;11385;50.822;4.324;2022-07-17T13:28:41;28.70;99.90
22436;DHT22;11385;50.822;4.324;2022-07-17T13:31:07;28.90;99.90
22436;DHT22;11385;50.822;4.324;2022-07-17T13:33:34;28.90;99.90
22436;DHT22;11385;50.822;4.324;2022-07-17T13:36:01;28.70;99.90
22436;DHT22;11385;50.822;4.324;2022-07-17T13:38:27;28.60;99.20
22436;DHT22;11385;50.822;4.324;2022-07-17T13:40:54;28.70;99.30
22436;DHT22;11385;50.822;4.324;2022-07-17T13:43:21;28.90;99.20
22436;DHT22;11385;50.822;4.324;2022-07-17T13:45:48;28.80;98.60
22436;DHT22;11385;50.822;4.324;2022-07-17T13:48:14;28.90;98.60
22436;DHT22;11385;50.822;4.324;2022-07-17T13:50:42;28.80;99.20
22436;DHT22;11385;50.822;4.324;2022-07-17T13:53:09;29.00;99.20
22436;DHT22;11385;50.822;4.324;2022-07-17T13:55:38;29.00;98.20
22436;DHT22;11385;50.822;4.324;2022-07-17T13:58:05;29.10;98.00
22436;DHT22;11385;50.822;4.324;2022-07-17T14:00:33;29.00;98.60
22436;DHT22;11385;50.822;4.324;2022-07-17T14:03:00;29.20;97.70
22436;DHT22;11385;50.822;4.324;2022-07-17T14:05:27;29.00;98.60
22436;DHT22;11385;50.822;4.324;2022-07-17T14:07:54;29.30;98.30
22436;DHT22;11385;50.822;4.324;2022-07-17T14:10:20;29.30;99.30
22436;DHT22;11385;50.822;4.324;2022-07-17T14:12:47;29.40;98.80
22436;DHT22;11385;50.822;4.324;2022-07-17T14:15:15;29.50;99.20
22436;DHT22;11385;50.822;4.324;2022-07-17T14:17:41;29.60;98.40
22436;DHT22;11385;50.822;4.324;2022-07-17T14:20:09;29.70;97.00
22436;DHT22;11385;50.822;4.324;2022-07-17T14:22:36;29.80;95.80
22436;DHT22;11385;50.822;4.324;2022-07-17T14:25:02;29.80;95.90
22436;DHT22;11385;50.822;4.324;2022-07-17T14:27:29;29.70;96.40
22436;DHT22;11385;50.822;4.324;2022-07-17T14:29:56;29.70;96.70
22436;DHT22;11385;50.822;4.324;2022-07-17T14:32:22;29.70;97.20
22436;DHT22;11385;50.822;4.324;2022-07-17T14:34:49;29.70;96.10
22436;DHT22;11385;50.822;4.324;2022-07-17T14:37:15;29.90;95.50
22436;DHT22;11385;50.822;4.324;2022-07-17T14:39:42;30.10;94.50
22436;DHT22;11385;50.822;4.324;2022-07-17T14:42:09;29.80;94.00
22436;DHT22;11385;50.822;4.324;2022-07-17T14:44:36;29.60;95.00
22436;DHT22;11385;50.822;4.324;2022-07-17T14:47:03;29.80;95.20
22436;DHT22;11385;50.822;4.324;2022-07-17T14:49:29;29.40;93.70
22436;DHT22;11385;50.822;4.324;2022-07-17T14:51:56;29.50;95.50
22436;DHT22;11385;50.822;4.324;2022-07-17T14:54:23;29.50;94.50
22436;DHT22;11385;50.822;4.324;2022-07-17T14:56:49;29.60;95.00
22436;DHT22;11385;50.822;4.324;2022-07-17T14:59:16;29.80;94.80
22436;DHT22;11385;50.822;4.324;2022-07-17T15:01:43;30.00;95.40
22436;DHT22;11385;50.822;4.324;2022-07-17T15:04:09;29.80;94.10
22436;DHT22;11385;50.822;4.324;2022-07-17T15:06:39;29.80;94.30
22436;DHT22;11385;50.822;4.324;2022-07-17T15:09:07;29.90;94.80
22436;DHT22;11385;50.822;4.324;2022-07-17T15:11:35;29.80;94.60
22436;DHT22;11385;50.822;4.324;2022-07-17T15:14:01;29.90;94.70
22436;DHT22;11385;50.822;4.324;2022-07-17T15:16:28;30.20;94.40
22436;DHT22;11385;50.822;4.324;2022-07-17T15:18:55;30.10;94.90
22436;DHT22;11385;50.822;4.324;2022-07-17T15:21:22;30.30;94.30
22436;DHT22;11385;50.822;4.324;2022-07-17T15:23:49;30.40;93.70
22436;DHT22;11385;50.822;4.324;2022-07-17T15:26:15;30.60;93.60
22436;DHT22;11385;50.822;4.324;2022-07-17T15:28:42;30.90;93.90
22436;DHT22;11385;50.822;4.324;2022-07-17T15:31:09;30.90;93.50
22436;DHT22;11385;50.822;4.324;2022-07-17T15:33:36;30.70;93.40
22436;DHT22;11385;50.822;4.324;2022-07-17T15:36:05;30.70;92.80
22436;DHT22;11385;50.822;4.324;2022-07-17T15:38:32;30.50;93.40
22436;DHT22;11385;50.822;4.324;2022-07-17T15:40:59;30.40;94.00